createdAt,value
2023-04-18T00:01:45.857Z,100.00
2023-04-18T00:04:14.173Z,100.00
2023-04-18T00:06:41.245Z,99.33
2023-04-18T00:09:08.163Z,100.00
2023-04-18T00:11:35.347Z,100.00
2023-04-18T00:14:03.433Z,99.09
2023-04-18T00:16:30.695Z,96.72
2023-04-18T00:18:57.684Z,98.56
2023-04-18T00:21:26.275Z,98.08
2023-04-18T00:23:53.148Z,94.92
2023-04-18T00:26:20.030Z,94.14
2023-04-18T00:28:48.860Z,95.23
2023-04-18T00:31:17.633Z,92.90
2023-04-18T00:33:44.585Z,91.95
2023-04-18T00:36:11.535Z,91.60
2023-04-18T00:38:38.528Z,92.09
2023-04-18T00:41:07.322Z,94.73
2023-04-18T00:43:35.305Z,91.83
2023-04-18T00:46:02.203Z,93.41
2023-04-18T00:48:31.298Z,95.72
2023-04-18T00:50:59.131Z,95.35
2023-04-18T00:53:26.054Z,97.06
2023-04-18T00:55:53.381Z,97.94
2023-04-18T00:58:20.627Z,95.43
2023-04-18T01:00:48.505Z,96.06
2023-04-18T01:03:18.548Z,98.29
2023-04-18T01:05:46.705Z,95.82
2023-04-18T01:08:13.948Z,94.31
2023-04-18T01:10:40.988Z,93.52
2023-04-18T01:13:11.883Z,95.27
2023-04-18T01:15:42.815Z,94.73
2023-04-18T01:18:10.325Z,97.25
2023-04-18T01:20:41.584Z,99.08
2023-04-18T01:23:10.564Z,99.39
2023-04-18T01:25:37.649Z,100.00
2023-04-18T01:28:04.931Z,100.00
2023-04-18T01:30:32.113Z,99.84
2023-04-18T01:33:00.342Z,98.41
2023-04-18T01:35:27.279Z,96.15
2023-04-18T01:37:56.331Z,98.62
2023-04-18T01:40:23.557Z,98.04
2023-04-18T01:42:50.825Z,100.00
2023-04-18T01:45:20.377Z,98.40
2023-04-18T01:47:47.442Z,99.40
2023-04-18T01:50:14.493Z,97.18
2023-04-18T01:52:42.911Z,97.65
2023-04-18T01:55:10.001Z,95.93
2023-04-18T01:57:37.093Z,96.04
2023-04-18T02:00:04.904Z,97.14
2023-04-18T02:02:41.469Z,97.35
2023-04-18T02:05:09.221Z,100.00
2023-04-18T02:07:38.714Z,100.00
2023-04-18T02:10:05.902Z,97.56
2023-04-18T02:12:32.890Z,97.75
2023-04-18T02:15:00.126Z,95.93
2023-04-18T02:17:27.112Z,97.75
2023-04-18T02:19:54.715Z,97.77
2023-04-18T02:22:21.584Z,100.00
2023-04-18T02:24:48.483Z,100.00
2023-04-18T02:27:15.428Z,99.82
2023-04-18T02:29:42.305Z,98.09
2023-04-18T02:32:09.386Z,100.00
2023-04-18T02:34:36.682Z,100.00
2023-04-18T02:37:04.247Z,100.00
2023-04-18T02:39:32.271Z,100.00
2023-04-18T02:41:59.357Z,100.00
2023-04-18T02:44:26.382Z,98.42
2023-04-18T02:46:53.366Z,98.16
2023-04-18T02:49:20.572Z,98.56
2023-04-18T02:51:48.064Z,100.00
2023-04-18T02:54:16.331Z,98.03
2023-04-18T02:56:57.940Z,99.29
2023-04-18T02:59:34.953Z,97.30
2023-04-18T03:02:25.161Z,96.94
2023-04-18T03:04:57.599Z,95.99
2023-04-18T03:07:24.762Z,99.42
2023-04-18T03:09:52.562Z,98.71
2023-04-18T03:12:25.812Z,97.05
2023-04-18T03:14:53.817Z,98.12
2023-04-18T03:17:21.402Z,97.08
2023-04-18T03:19:49.540Z,97.25
2023-04-18T03:22:19.376Z,100.00
2023-04-18T03:24:53.315Z,99.32
2023-04-18T03:27:22.474Z,97.72
2023-04-18T03:29:49.423Z,100.00
2023-04-18T03:32:17.464Z,100.00
2023-04-18T03:34:44.475Z,100.00
2023-04-18T03:37:11.841Z,100.00
2023-04-18T03:39:44.538Z,100.00
2023-04-18T03:42:11.542Z,100.00
2023-04-18T03:44:39.620Z,100.00
2023-04-18T03:47:07.048Z,99.78
2023-04-18T03:49:37.174Z,100.00
2023-04-18T03:52:04.090Z,100.00
2023-04-18T03:54:31.040Z,100.00
2023-04-18T03:56:59.539Z,100.00
2023-04-18T03:59:27.281Z,100.00
2023-04-18T04:01:56.088Z,99.98
2023-04-18T04:04:23.055Z,99.15
2023-04-18T04:06:51.123Z,97.68
2023-04-18T04:09:18.037Z,95.24
2023-04-18T04:11:46.389Z,95.02
2023-04-18T04:14:15.251Z,95.15
2023-04-18T04:16:45.333Z,94.59
2023-04-18T04:19:15.422Z,94.02
2023-04-18T04:21:51.036Z,94.90
2023-04-18T04:24:17.956Z,93.49
2023-04-18T04:26:48.858Z,94.19
2023-04-18T04:29:23.974Z,93.57
2023-04-18T04:31:52.477Z,94.10
2023-04-18T04:34:37.003Z,93.63
2023-04-18T04:37:06.956Z,93.36
2023-04-18T04:39:39.936Z,92.87
2023-04-18T04:42:25.366Z,92.30
2023-04-18T04:45:00.347Z,89.94
2023-04-18T04:47:27.487Z,89.25
2023-04-18T04:49:54.764Z,90.34
2023-04-18T04:52:21.707Z,90.17
2023-04-18T04:54:48.756Z,89.91
2023-04-18T04:57:18.178Z,92.66
2023-04-18T04:59:45.817Z,92.32
2023-04-18T05:02:12.817Z,91.60
2023-04-18T05:04:41.168Z,93.19
2023-04-18T05:07:08.110Z,90.86
2023-04-18T05:09:35.167Z,89.99
2023-04-18T05:12:02.115Z,89.94
2023-04-18T05:14:28.987Z,91.79
2023-04-18T05:16:57.121Z,90.87
2023-04-18T05:19:24.179Z,93.66
2023-04-18T05:21:51.122Z,94.05
2023-04-18T05:24:18.009Z,96.35
2023-04-18T05:26:44.911Z,96.35
2023-04-18T05:29:11.784Z,95.85
2023-04-18T05:31:38.649Z,94.90
2023-04-18T05:34:05.552Z,93.99
2023-04-18T05:36:32.534Z,93.61
2023-04-18T05:38:59.489Z,93.04
2023-04-18T05:41:26.312Z,89.98
2023-04-18T05:44:02.449Z,87.17
2023-04-18T05:46:32.497Z,85.51
2023-04-18T05:48:59.422Z,89.29
2023-04-18T05:51:26.893Z,90.07
2023-04-18T05:53:53.802Z,92.47
2023-04-18T05:56:21.241Z,89.77
2023-04-18T05:58:48.306Z,92.02
2023-04-18T06:01:15.363Z,90.89
2023-04-18T06:03:42.416Z,93.32
2023-04-18T06:06:09.679Z,94.46
2023-04-18T06:08:38.537Z,95.01
2023-04-18T06:11:05.516Z,94.39
2023-04-18T06:13:32.665Z,92.61
2023-04-18T06:16:00.448Z,89.92
2023-04-18T06:18:27.560Z,90.08
2023-04-18T06:20:54.813Z,87.96
2023-04-18T06:23:21.668Z,84.46
2023-04-18T06:25:48.543Z,87.90
2023-04-18T06:28:15.544Z,89.30
2023-04-18T06:30:42.429Z,90.98
2023-04-18T06:33:12.220Z,93.60
2023-04-18T06:35:39.047Z,91.01
2023-04-18T06:38:06.087Z,91.53
2023-04-18T06:40:32.936Z,92.75
2023-04-18T06:42:59.870Z,89.80
2023-04-18T06:45:26.842Z,86.76
2023-04-18T06:47:53.676Z,84.15
2023-04-18T06:50:20.614Z,81.37
2023-04-18T06:52:47.522Z,81.97
2023-04-18T06:55:14.488Z,84.85
2023-04-18T06:57:42.519Z,85.53
2023-04-18T07:00:11.009Z,85.74
2023-04-18T07:02:38.634Z,82.57
2023-04-18T07:05:06.659Z,83.47
2023-04-18T07:07:33.921Z,81.32
2023-04-18T07:10:00.831Z,81.50
2023-04-18T07:12:27.848Z,76.48
2023-04-18T07:14:55.153Z,73.60
2023-04-18T07:17:22.085Z,76.84
2023-04-18T07:19:49.004Z,75.18
2023-04-18T07:22:15.976Z,81.07
2023-04-18T07:24:44.174Z,77.73
2023-04-18T07:27:11.134Z,74.90
2023-04-18T07:29:38.029Z,74.35
2023-04-18T07:32:06.208Z,78.08
2023-04-18T07:34:36.299Z,76.52
2023-04-18T07:37:03.616Z,75.34
2023-04-18T07:39:32.151Z,76.69
2023-04-18T07:41:59.333Z,73.54
2023-04-18T07:44:26.217Z,76.26
2023-04-18T07:46:53.268Z,71.91
2023-04-18T07:49:20.194Z,71.76
2023-04-18T07:51:47.216Z,70.99
2023-04-18T07:54:14.110Z,71.07
2023-04-18T07:56:41.176Z,74.22
2023-04-18T07:59:08.061Z,71.09
2023-04-18T08:01:35.088Z,71.14
2023-04-18T08:04:02.336Z,69.39
2023-04-18T08:06:29.729Z,68.14
2023-04-18T08:08:59.111Z,68.75
2023-04-18T08:11:26.380Z,69.63
2023-04-18T08:13:53.408Z,69.87
2023-04-18T08:16:20.388Z,66.35
2023-04-18T08:18:47.331Z,69.00
2023-04-18T08:21:14.284Z,71.33
2023-04-18T08:23:41.311Z,72.81
2023-04-18T08:26:08.153Z,75.67
2023-04-18T08:28:35.269Z,84.33
2023-04-18T08:31:02.197Z,85.88
2023-04-18T08:33:29.250Z,90.41
2023-04-18T08:35:56.269Z,91.91
2023-04-18T08:38:23.128Z,93.36
2023-04-18T08:40:50.047Z,96.18
2023-04-18T08:43:17.234Z,97.47
2023-04-18T08:45:44.861Z,96.59
2023-04-18T08:48:13.279Z,99.05
2023-04-18T08:50:40.899Z,97.09
2023-04-18T08:53:08.046Z,96.16
2023-04-18T08:55:35.678Z,95.97
2023-04-18T08:58:03.299Z,97.85
2023-04-18T09:00:30.599Z,96.75
2023-04-18T09:02:57.805Z,99.39
2023-04-18T09:05:25.455Z,96.59
2023-04-18T09:07:56.436Z,97.06
2023-04-18T09:10:27.624Z,96.00
2023-04-18T09:12:55.002Z,93.25
2023-04-18T09:15:27.371Z,92.75
2023-04-18T09:17:56.486Z,88.94
2023-04-18T09:20:35.948Z,85.33
2023-04-18T09:23:04.099Z,79.63
2023-04-18T09:25:34.820Z,79.58
2023-04-18T09:28:05.596Z,79.63
2023-04-18T09:30:40.097Z,80.89
2023-04-18T09:33:09.692Z,76.90
2023-04-18T09:35:38.167Z,73.49
2023-04-18T09:38:05.739Z,73.88
2023-04-18T09:40:32.947Z,69.80
2023-04-18T09:42:59.939Z,70.92
2023-04-18T09:45:27.022Z,68.93
2023-04-18T09:47:54.437Z,62.76
2023-04-18T09:50:21.490Z,70.57
2023-04-18T09:52:48.665Z,71.82
2023-04-18T09:55:17.613Z,73.13
2023-04-18T09:57:45.959Z,71.75
2023-04-18T10:00:20.248Z,68.81
2023-04-18T10:02:47.228Z,65.87
2023-04-18T10:05:14.563Z,67.94
2023-04-18T10:07:44.147Z,66.13
2023-04-18T10:10:11.240Z,64.34
2023-04-18T10:12:38.775Z,63.70
2023-04-18T10:15:06.936Z,61.34
2023-04-18T10:17:56.262Z,59.18
2023-04-18T10:20:28.126Z,61.06
2023-04-18T10:22:55.875Z,60.92
2023-04-18T10:25:41.357Z,61.12
2023-04-18T10:28:09.147Z,64.25
2023-04-18T10:30:56.533Z,65.95
2023-04-18T10:33:29.963Z,62.92
2023-04-18T10:35:59.466Z,64.91
2023-04-18T10:38:26.558Z,64.27
2023-04-18T10:40:53.849Z,64.37
2023-04-18T10:43:20.806Z,64.65
2023-04-18T10:46:12.058Z,59.72
2023-04-18T10:49:07.068Z,57.38
2023-04-18T10:51:33.945Z,56.48
2023-04-18T10:54:01.429Z,56.31
2023-04-18T10:56:29.179Z,53.35
2023-04-18T10:58:58.238Z,55.49
2023-04-18T11:01:25.321Z,50.84
2023-04-18T11:03:53.546Z,52.01
2023-04-18T11:06:21.699Z,48.89
2023-04-18T11:08:51.873Z,49.35
2023-04-18T11:11:18.734Z,53.35
2023-04-18T11:13:58.187Z,50.63
2023-04-18T11:16:29.217Z,48.63
2023-04-18T11:19:44.774Z,50.45
2023-04-18T11:22:12.603Z,52.92
2023-04-18T11:24:39.920Z,55.47
2023-04-18T11:27:10.096Z,58.06
2023-04-18T11:29:38.128Z,56.81
2023-04-18T11:32:09.459Z,56.19
2023-04-18T11:34:36.794Z,56.70
2023-04-18T11:37:07.824Z,55.29
2023-04-18T11:39:41.075Z,53.81
2023-04-18T11:42:09.195Z,59.09
2023-04-18T11:44:39.899Z,64.85
2023-04-18T11:47:29.000Z,67.28
2023-04-18T11:50:01.117Z,66.97
2023-04-18T11:52:29.885Z,68.31
2023-04-18T11:55:09.967Z,68.89
2023-04-18T11:57:37.235Z,67.96
2023-04-18T12:00:06.990Z,69.01
2023-04-18T12:02:38.783Z,68.08
2023-04-18T12:05:06.911Z,64.69
2023-04-18T12:07:37.423Z,62.17
2023-04-18T12:10:26.582Z,57.84
2023-04-18T12:12:55.294Z,52.76
2023-04-18T12:15:28.262Z,47.52
2023-04-18T12:18:00.710Z,50.40
2023-04-18T12:20:40.080Z,50.54
2023-04-18T12:23:09.090Z,48.01
2023-04-18T12:25:36.566Z,49.85
2023-04-18T12:28:15.201Z,46.63
2023-04-18T12:30:42.911Z,47.96
2023-04-18T12:33:10.114Z,46.30
2023-04-18T12:35:38.078Z,43.95
2023-04-18T12:38:05.891Z,44.24
2023-04-18T12:40:33.077Z,44.25
2023-04-18T12:43:02.921Z,49.31
2023-04-18T12:45:31.176Z,50.35
2023-04-18T12:47:58.620Z,48.04
2023-04-18T12:50:27.043Z,46.77
2023-04-18T12:52:55.913Z,48.04
2023-04-18T12:55:23.098Z,48.27
2023-04-18T12:57:54.436Z,48.48
2023-04-18T13:00:26.143Z,56.26
2023-04-18T13:02:53.431Z,59.07
2023-04-18T13:05:22.894Z,64.00
2023-04-18T13:07:56.308Z,68.38
2023-04-18T13:10:29.054Z,67.75
2023-04-18T13:12:56.573Z,70.73
2023-04-18T13:15:24.130Z,72.22
2023-04-18T13:17:51.392Z,71.73
2023-04-18T13:20:18.622Z,73.97
2023-04-18T13:22:45.984Z,74.88
2023-04-18T13:25:13.446Z,71.59
2023-04-18T13:27:42.086Z,70.04
2023-04-18T13:30:11.218Z,73.20
2023-04-18T13:32:39.365Z,74.75
2023-04-18T13:35:09.193Z,75.75
2023-04-18T13:37:39.727Z,76.87
2023-04-18T13:40:08.074Z,75.02
2023-04-18T13:42:37.519Z,77.59
2023-04-18T13:45:04.976Z,72.09
2023-04-18T13:47:32.115Z,74.51
2023-04-18T13:49:59.344Z,71.63
2023-04-18T13:52:26.458Z,69.41
2023-04-18T13:54:53.674Z,69.43
2023-04-18T13:57:21.999Z,70.33
2023-04-18T13:59:49.129Z,67.81
2023-04-18T14:02:16.436Z,68.92
2023-04-18T14:04:43.898Z,73.02
2023-04-18T14:07:11.106Z,72.85
2023-04-18T14:09:38.154Z,76.38
2023-04-18T14:12:05.601Z,72.79
2023-04-18T14:14:32.619Z,75.41
2023-04-18T14:16:59.662Z,74.86
2023-04-18T14:19:27.314Z,76.40
2023-04-18T14:21:54.836Z,78.66
2023-04-18T14:24:21.945Z,77.83
2023-04-18T14:26:49.062Z,77.85
2023-04-18T14:29:16.689Z,79.79
2023-04-18T14:31:44.138Z,82.24
2023-04-18T14:34:11.327Z,83.12
2023-04-18T14:36:38.439Z,83.40
2023-04-18T14:39:05.738Z,84.64
2023-04-18T14:41:33.262Z,84.30
2023-04-18T14:44:00.604Z,84.97
2023-04-18T14:46:28.505Z,83.26
2023-04-18T14:48:55.789Z,84.42
2023-04-18T14:51:23.666Z,86.03
2023-04-18T14:53:51.366Z,89.82
2023-04-18T14:56:21.243Z,87.96
2023-04-18T14:58:48.669Z,88.62
2023-04-18T15:01:17.598Z,88.57
2023-04-18T15:03:45.579Z,89.27
2023-04-18T15:06:12.906Z,87.48
2023-04-18T15:08:40.173Z,87.90
2023-04-18T15:11:08.303Z,89.03
2023-04-18T15:13:35.850Z,90.02
2023-04-18T15:16:03.105Z,89.52
2023-04-18T15:18:30.343Z,90.97
2023-04-18T15:20:59.627Z,90.14
2023-04-18T15:23:27.658Z,89.21
2023-04-18T15:25:54.763Z,88.56
2023-04-18T15:28:21.891Z,88.47
2023-04-18T15:30:48.948Z,90.21
2023-04-18T15:33:17.542Z,89.92
2023-04-18T15:35:45.246Z,91.13
2023-04-18T15:38:12.309Z,88.74
2023-04-18T15:40:39.359Z,86.40
2023-04-18T15:43:06.637Z,85.86
2023-04-18T15:45:34.026Z,85.58
2023-04-18T15:48:01.316Z,90.52
2023-04-18T15:50:28.813Z,93.68
2023-04-18T15:52:56.597Z,95.96
2023-04-18T15:55:23.724Z,96.52
2023-04-18T15:57:50.920Z,98.75
2023-04-18T16:00:19.823Z,98.66
2023-04-18T16:02:47.451Z,100.00
2023-04-18T16:05:15.534Z,100.00
2023-04-18T16:07:43.308Z,100.00
2023-04-18T16:10:11.240Z,100.00
2023-04-18T16:12:39.513Z,100.00
2023-04-18T16:15:08.772Z,99.92
2023-04-18T16:17:37.161Z,99.54
2023-04-18T16:20:06.456Z,100.00
2023-04-18T16:22:33.712Z,99.48
2023-04-18T16:25:00.864Z,99.75
2023-04-18T16:27:28.422Z,99.46
2023-04-18T16:29:55.915Z,99.28
2023-04-18T16:32:23.075Z,94.26
2023-04-18T16:34:50.329Z,100.00
2023-04-18T16:37:17.529Z,100.00
2023-04-18T16:39:44.907Z,100.00
2023-04-18T16:42:14.053Z,100.00
2023-04-18T16:44:42.728Z,100.00
2023-04-18T16:47:09.954Z,100.00
2023-04-18T16:49:37.615Z,100.00
2023-04-18T16:52:04.844Z,100.00
2023-04-18T16:54:32.161Z,100.00
2023-04-18T16:56:59.392Z,100.00
2023-04-18T16:59:26.689Z,100.00
2023-04-18T17:01:53.935Z,100.00
2023-04-18T17:04:21.894Z,100.00
2023-04-18T17:06:51.470Z,100.00
2023-04-18T17:09:19.887Z,100.00
2023-04-18T17:11:48.005Z,100.00
2023-04-18T17:14:15.557Z,100.00
2023-04-18T17:16:42.864Z,100.00
2023-04-18T17:19:10.894Z,100.00
2023-04-18T17:21:38.609Z,100.00
2023-04-18T17:24:07.154Z,100.00
2023-04-18T17:26:35.555Z,100.00
2023-04-18T17:29:04.364Z,100.00
2023-04-18T17:31:32.560Z,100.00
2023-04-18T17:34:00.808Z,100.00
2023-04-18T17:36:27.954Z,100.00
2023-04-18T17:38:55.523Z,100.00
2023-04-18T17:41:22.739Z,100.00
2023-04-18T17:43:53.468Z,100.00
2023-04-18T17:46:20.717Z,100.00
2023-04-18T17:48:47.898Z,100.00
2023-04-18T17:51:16.578Z,100.00
2023-04-18T17:53:43.753Z,100.00
2023-04-18T17:56:10.943Z,100.00
2023-04-18T17:58:38.245Z,100.00
2023-04-18T18:01:18.942Z,100.00
2023-04-18T18:03:47.373Z,100.00
2023-04-18T18:06:15.831Z,100.00
2023-04-18T18:08:43.607Z,100.00
2023-04-18T18:11:11.163Z,99.76
2023-04-18T18:13:41.689Z,100.00
2023-04-18T18:16:09.134Z,100.00
2023-04-18T18:18:36.994Z,100.00
2023-04-18T18:21:04.192Z,100.00
2023-04-18T18:23:31.384Z,100.00
2023-04-18T18:25:58.755Z,99.78
2023-04-18T18:28:26.222Z,97.97
2023-04-18T18:30:54.148Z,99.67
2023-04-18T18:33:21.382Z,100.00
2023-04-18T18:35:48.516Z,100.00
2023-04-18T18:38:15.751Z,100.00
2023-04-18T18:40:42.926Z,100.00
2023-04-18T18:43:10.072Z,99.39
2023-04-18T18:45:38.508Z,100.00
2023-04-18T18:48:10.116Z,100.00
2023-04-18T18:50:37.503Z,100.00
2023-04-18T18:53:06.261Z,100.00
2023-04-18T18:55:33.513Z,100.00
2023-04-18T18:58:00.700Z,100.00
2023-04-18T19:00:27.870Z,100.00
2023-04-18T19:02:55.131Z,100.00
2023-04-18T19:05:22.372Z,100.00
2023-04-18T19:07:51.586Z,100.00
2023-04-18T19:10:18.831Z,100.00
2023-04-18T19:12:46.016Z,100.00
2023-04-18T19:15:13.291Z,100.00
2023-04-18T19:17:40.541Z,100.00
2023-04-18T19:20:09.139Z,100.00
2023-04-18T19:22:36.282Z,100.00
2023-04-18T19:25:03.597Z,100.00
2023-04-18T19:27:30.726Z,100.00
2023-04-18T19:29:57.954Z,100.00
2023-04-18T19:32:25.047Z,100.00
2023-04-18T19:34:52.155Z,100.00
2023-04-18T19:37:19.304Z,100.00
2023-04-18T19:39:46.461Z,100.00
2023-04-18T19:42:13.729Z,100.00
2023-04-18T19:44:41.122Z,100.00
2023-04-18T19:47:08.394Z,100.00
2023-04-18T19:49:35.495Z,100.00
2023-04-18T19:52:02.704Z,100.00
2023-04-18T19:54:33.417Z,100.00
2023-04-18T19:57:01.501Z,100.00
2023-04-18T19:59:28.587Z,100.00
2023-04-18T20:01:56.725Z,100.00
2023-04-18T20:04:26.060Z,100.00
2023-04-18T20:06:54.187Z,100.00
2023-04-18T20:09:21.311Z,100.00
2023-04-18T20:11:48.659Z,100.00
2023-04-18T20:14:15.871Z,100.00
2023-04-18T20:16:43.170Z,100.00
2023-04-18T20:19:12.692Z,100.00
2023-04-18T20:21:39.997Z,100.00
2023-04-18T20:24:09.780Z,100.00
2023-04-18T20:26:36.915Z,100.00
2023-04-18T20:29:04.149Z,100.00
2023-04-18T20:31:31.199Z,100.00
2023-04-18T20:33:58.311Z,100.00
2023-04-18T20:36:25.452Z,100.00
2023-04-18T20:38:52.557Z,100.00
2023-04-18T20:41:22.821Z,100.00
2023-04-18T20:43:50.855Z,100.00
2023-04-18T20:46:17.991Z,100.00
2023-04-18T20:48:45.073Z,100.00
2023-04-18T20:51:12.221Z,100.00
2023-04-18T20:53:39.357Z,100.00
2023-04-18T20:56:06.482Z,100.00
2023-04-18T20:58:33.631Z,100.00
2023-04-18T21:01:00.841Z,100.00
2023-04-18T21:03:28.121Z,100.00
2023-04-18T21:05:55.425Z,100.00
2023-04-18T21:08:22.511Z,100.00
2023-04-18T21:10:49.592Z,100.00
2023-04-18T21:13:16.690Z,100.00
2023-04-18T21:15:43.834Z,100.00
2023-04-18T21:18:11.003Z,100.00
2023-04-18T21:20:38.183Z,100.00
2023-04-18T21:23:06.605Z,100.00
2023-04-18T21:25:33.736Z,100.00
2023-04-18T21:28:00.969Z,100.00
2023-04-18T21:30:28.098Z,100.00
2023-04-18T21:32:55.222Z,100.00
2023-04-18T21:35:24.632Z,100.00
2023-04-18T21:37:52.149Z,100.00
2023-04-18T21:40:19.460Z,100.00
2023-04-18T21:42:47.778Z,100.00
2023-04-18T21:45:17.012Z,100.00
2023-04-18T21:47:44.566Z,100.00
2023-04-18T21:50:11.864Z,100.00
2023-04-18T21:52:38.972Z,100.00
2023-04-18T21:55:06.334Z,100.00
2023-04-18T21:57:33.466Z,100.00
2023-04-18T22:00:00.622Z,100.00
2023-04-18T22:02:27.873Z,98.69
2023-04-18T22:04:55.200Z,98.96
2023-04-18T22:07:24.278Z,98.84
2023-04-18T22:09:51.419Z,99.35
2023-04-18T22:12:18.640Z,100.00
2023-04-18T22:14:48.551Z,100.00
2023-04-18T22:17:15.746Z,100.00
2023-04-18T22:19:44.560Z,100.00
2023-04-18T22:22:11.881Z,100.00
2023-04-18T22:24:39.090Z,100.00
2023-04-18T22:27:06.318Z,100.00
2023-04-18T22:29:33.400Z,100.00
2023-04-18T22:32:00.604Z,98.87
2023-04-18T22:34:27.740Z,98.81
2023-04-18T22:36:54.853Z,100.00
2023-04-18T22:39:21.963Z,100.00
2023-04-18T22:41:49.039Z,99.56
2023-04-18T22:44:16.540Z,100.00
2023-04-18T22:46:44.646Z,100.00
2023-04-18T22:49:11.944Z,100.00
2023-04-18T22:51:39.019Z,100.00
2023-04-18T22:54:06.178Z,100.00
2023-04-18T22:56:33.258Z,100.00
2023-04-18T22:59:00.308Z,100.00
2023-04-18T23:01:27.480Z,100.00
2023-04-18T23:03:54.780Z,100.00
2023-04-18T23:06:22.404Z,99.79
2023-04-18T23:08:49.929Z,95.84
2023-04-18T23:11:17.027Z,99.82
2023-04-18T23:13:44.139Z,100.00
2023-04-18T23:16:11.321Z,100.00
2023-04-18T23:18:38.403Z,100.00
2023-04-18T23:21:05.627Z,100.00
2023-04-18T23:23:33.342Z,100.00
2023-04-18T23:26:00.755Z,100.00
2023-04-18T23:28:27.884Z,100.00
2023-04-18T23:30:54.986Z,99.45
2023-04-18T23:33:22.522Z,97.77
2023-04-18T23:35:49.565Z,96.95
2023-04-18T23:38:16.747Z,95.84
2023-04-18T23:40:43.849Z,94.69
2023-04-18T23:43:10.904Z,94.41
2023-04-18T23:45:38.012Z,93.15
2023-04-18T23:48:05.119Z,92.52
2023-04-18T23:50:32.242Z,91.60
2023-04-18T23:52:59.318Z,91.10
2023-04-18T23:55:26.544Z,91.46
2023-04-18T23:57:53.618Z,95.57
